sensor_id;sensor_type;location;lat;lon;timestamp;pressure;altitude;pressure_sealevel;temperature;humidity
14689;BME280;7432;48.728;9.154;2022-07-30T00:00:08;96604.88;;;17.23;83.32
14689;BME280;7432;48.728;9.154;2022-07-30T00:02:35;96609.25;;;17.22;81.01
14689;BME280;7432;48.728;9.154;2022-07-30T00:05:02;96611.88;;;17.22;81.49
14689;BME280;7432;48.728;9.154;2022-07-30T00:07:28;96618.09;;;17.28;81.90
14689;BME280;7432;48.728;9.154;2022-07-30T00:09:55;96622.50;;;17.34;81.69
14689;BME280;7432;48.728;9.154;2022-07-30T00:12:22;96615.88;;;17.38;81.56
14689;BME280;7432;48.728;9.154;2022-07-30T00:14:50;96613.91;;;17.40;81.66
14689;BME280;7432;48.728;9.154;2022-07-30T00:17:17;96613.50;;;17.43;81.75
14689;BME280;7432;48.728;9.154;2022-07-30T00:19:43;96616.69;;;17.51;81.83
14689;BME280;7432;48.728;9.154;2022-07-30T00:22:11;96622.69;;;17.52;82.24
14689;BME280;7432;48.728;9.154;2022-07-30T00:24:37;96623.94;;;17.56;81.86
14689;BME280;7432;48.728;9.154;2022-07-30T00:27:04;96620.56;;;17.62;82.09
14689;BME280;7432;48.728;9.154;2022-07-30T00:29:30;96618.13;;;17.67;81.37
14689;BME280;7432;48.728;9.154;2022-07-30T00:31:58;96619.31;;;17.71;81.19
14689;BME280;7432;48.728;9.154;2022-07-30T00:34:25;96625.34;;;17.78;79.91
14689;BME280;7432;48.728;9.154;2022-07-30T00:36:51;96617.72;;;17.76;79.33
14689;BME280;7432;48.728;9.154;2022-07-30T00:39:17;96626.34;;;17.84;78.35
14689;BME280;7432;48.728;9.154;2022-07-30T00:42:02;96624.13;;;17.87;78.01
14689;BME280;7432;48.728;9.154;2022-07-30T00:44:29;96622.72;;;17.91;76.21
14689;BME280;7432;48.728;9.154;2022-07-30T00:46:56;96626.13;;;17.98;77.40
14689;BME280;7432;48.728;9.154;2022-07-30T00:49:24;96624.72;;;18.02;78.02
14689;BME280;7432;48.728;9.154;2022-07-30T00:51:51;96622.72;;;18.04;77.36
14689;BME280;7432;48.728;9.154;2022-07-30T00:54:17;96620.69;;;18.13;79.45
14689;BME280;7432;48.728;9.154;2022-07-30T00:56:45;96619.69;;;18.14;77.94
14689;BME280;7432;48.728;9.154;2022-07-30T00:59:12;96622.31;;;18.14;78.71
14689;BME280;7432;48.728;9.154;2022-07-30T01:01:39;96620.28;;;18.16;79.66
14689;BME280;7432;48.728;9.154;2022-07-30T01:04:05;96625.28;;;18.17;80.24
14689;BME280;7432;48.728;9.154;2022-07-30T01:06:37;96631.31;;;18.18;79.08
14689;BME280;7432;48.728;9.154;2022-07-30T01:09:04;96637.31;;;18.25;78.57
14689;BME280;7432;48.728;9.154;2022-07-30T01:11:35;96633.50;;;18.21;77.90
14689;BME280;7432;48.728;9.154;2022-07-30T01:14:03;96636.88;;;18.28;78.09
14689;BME280;7432;48.728;9.154;2022-07-30T01:16:29;96638.31;;;18.24;78.88
14689;BME280;7432;48.728;9.154;2022-07-30T01:18:57;96639.13;;;18.24;77.01
14689;BME280;7432;48.728;9.154;2022-07-30T01:21:47;96640.72;;;18.12;77.60
14689;BME280;7432;48.728;9.154;2022-07-30T01:24:21;96637.53;;;18.04;78.82
14689;BME280;7432;48.728;9.154;2022-07-30T01:26:53;96638.38;;;17.98;79.88
14689;BME280;7432;48.728;9.154;2022-07-30T01:29:21;96646.19;;;17.91;80.68
14689;BME280;7432;48.728;9.154;2022-07-30T01:31:49;96639.78;;;17.81;80.96
14689;BME280;7432;48.728;9.154;2022-07-30T01:34:18;96654.59;;;17.73;81.78
14689;BME280;7432;48.728;9.154;2022-07-30T01:36:45;96647.19;;;17.70;81.43
14689;BME280;7432;48.728;9.154;2022-07-30T01:39:14;96649.41;;;17.67;82.14
14689;BME280;7432;48.728;9.154;2022-07-30T01:41:44;96650.22;;;17.67;82.44
14689;BME280;7432;48.728;9.154;2022-07-30T01:44:13;96647.38;;;17.62;82.09
14689;BME280;7432;48.728;9.154;2022-07-30T01:46:41;96653.22;;;17.64;81.74
14689;BME280;7432;48.728;9.154;2022-07-30T01:49:09;96651.41;;;17.65;82.32
14689;BME280;7432;48.728;9.154;2022-07-30T01:51:36;96646.19;;;17.65;82.83
14689;BME280;7432;48.728;9.154;2022-07-30T01:54:06;96658.19;;;17.66;82.83
14689;BME280;7432;48.728;9.154;2022-07-30T01:56:34;96660.63;;;17.61;83.61
14689;BME280;7432;48.728;9.154;2022-07-30T01:59:02;96664.41;;;17.58;82.98
14689;BME280;7432;48.728;9.154;2022-07-30T02:01:31;96662.81;;;17.57;83.60
14689;BME280;7432;48.728;9.154;2022-07-30T02:03:59;96664.03;;;17.61;83.34
14689;BME280;7432;48.728;9.154;2022-07-30T02:06:31;96666.22;;;17.58;83.42
14689;BME280;7432;48.728;9.154;2022-07-30T02:09:03;96663.03;;;17.56;83.79
14689;BME280;7432;48.728;9.154;2022-07-30T02:11:31;96661.97;;;17.50;83.81
14689;BME280;7432;48.728;9.154;2022-07-30T02:14:23;96662.75;;;17.44;83.76
14689;BME280;7432;48.728;9.154;2022-07-30T02:16:52;96654.34;;;17.36;83.55
14689;BME280;7432;48.728;9.154;2022-07-30T02:19:21;96656.75;;;17.31;83.79
14689;BME280;7432;48.728;9.154;2022-07-30T02:21:58;96643.91;;;17.23;83.86
14689;BME280;7432;48.728;9.154;2022-07-30T02:24:28;96647.09;;;17.11;84.38
14689;BME280;7432;48.728;9.154;2022-07-30T02:27:01;96653.47;;;17.02;84.81
14689;BME280;7432;48.728;9.154;2022-07-30T02:29:30;96653.47;;;17.02;85.25
14689;BME280;7432;48.728;9.154;2022-07-30T02:32:00;96653.47;;;16.96;85.45
14689;BME280;7432;48.728;9.154;2022-07-30T02:34:28;96656.44;;;16.93;86.12
14689;BME280;7432;48.728;9.154;2022-07-30T02:36:55;96648.44;;;16.88;86.24
14689;BME280;7432;48.728;9.154;2022-07-30T02:39:24;96665.63;;;16.89;86.34
14689;BME280;7432;48.728;9.154;2022-07-30T02:41:51;96656.41;;;16.80;86.43
14689;BME280;7432;48.728;9.154;2022-07-30T02:44:22;96661.19;;;16.76;86.78
14689;BME280;7432;48.728;9.154;2022-07-30T02:46:50;96669.00;;;16.76;86.39
14689;BME280;7432;48.728;9.154;2022-07-30T02:49:20;96659.94;;;16.72;86.38
14689;BME280;7432;48.728;9.154;2022-07-30T02:51:48;96670.16;;;16.67;86.71
14689;BME280;7432;48.728;9.154;2022-07-30T02:54:17;96665.31;;;16.64;86.78
14689;BME280;7432;48.728;9.154;2022-07-30T02:56:45;96673.34;;;16.63;86.69
14689;BME280;7432;48.728;9.154;2022-07-30T02:59:13;96665.09;;;16.59;86.85
14689;BME280;7432;48.728;9.154;2022-07-30T03:01:41;96672.69;;;16.54;86.97
14689;BME280;7432;48.728;9.154;2022-07-30T03:04:09;96676.44;;;16.51;86.91
14689;BME280;7432;48.728;9.154;2022-07-30T03:06:39;96670.59;;;16.43;87.37
14689;BME280;7432;48.728;9.154;2022-07-30T03:09:08;96684.59;;;16.42;87.25
14689;BME280;7432;48.728;9.154;2022-07-30T03:11:35;96678.63;;;16.48;86.93
14689;BME280;7432;48.728;9.154;2022-07-30T03:14:02;96675.41;;;16.46;86.66
14689;BME280;7432;48.728;9.154;2022-07-30T03:16:30;96669.78;;;16.42;86.68
14689;BME280;7432;48.728;9.154;2022-07-30T03:19:00;96679.59;;;16.40;86.25
14689;BME280;7432;48.728;9.154;2022-07-30T03:21:31;96687.38;;;16.40;86.72
14689;BME280;7432;48.728;9.154;2022-07-30T03:24:01;96691.78;;;16.40;86.87
14689;BME280;7432;48.728;9.154;2022-07-30T03:26:29;96689.75;;;16.35;86.77
14689;BME280;7432;48.728;9.154;2022-07-30T03:28:56;96689.94;;;16.34;86.46
14689;BME280;7432;48.728;9.154;2022-07-30T03:31:23;96696.53;;;16.30;87.11
14689;BME280;7432;48.728;9.154;2022-07-30T03:33:50;96698.88;;;16.25;86.72
14689;BME280;7432;48.728;9.154;2022-07-30T03:36:17;96698.47;;;16.21;86.80
14689;BME280;7432;48.728;9.154;2022-07-30T03:38:45;96693.84;;;16.17;86.60
14689;BME280;7432;48.728;9.154;2022-07-30T03:41:14;96697.41;;;16.16;86.47
14689;BME280;7432;48.728;9.154;2022-07-30T03:43:41;96697.63;;;16.14;85.87
14689;BME280;7432;48.728;9.154;2022-07-30T03:46:08;96699.84;;;16.17;85.80
14689;BME280;7432;48.728;9.154;2022-07-30T03:48:35;96704.59;;;16.14;85.37
14689;BME280;7432;48.728;9.154;2022-07-30T03:51:05;96709.59;;;16.15;84.86
14689;BME280;7432;48.728;9.154;2022-07-30T03:53:33;96709.19;;;16.12;85.26
14689;BME280;7432;48.728;9.154;2022-07-30T03:56:01;96704.97;;;16.11;85.41
14689;BME280;7432;48.728;9.154;2022-07-30T03:58:29;96711.94;;;16.04;85.47
14689;BME280;7432;48.728;9.154;2022-07-30T04:00:56;96709.94;;;16.06;85.21
14689;BME280;7432;48.728;9.154;2022-07-30T04:03:23;96718.13;;;16.02;85.30
14689;BME280;7432;48.728;9.154;2022-07-30T04:05:49;96719.72;;;16.04;85.68
14689;BME280;7432;48.728;9.154;2022-07-30T04:08:16;96721.28;;;15.98;85.63
14689;BME280;7432;48.728;9.154;2022-07-30T04:10:42;96720.25;;;15.92;85.87
14689;BME280;7432;48.728;9.154;2022-07-30T04:13:09;96735.00;;;15.92;86.46
14689;BME280;7432;48.728;9.154;2022-07-30T04:15:45;96733.63;;;15.96;86.40
14689;BME280;7432;48.728;9.154;2022-07-30T04:18:14;96730.88;;;15.97;86.55
14689;BME280;7432;48.728;9.154;2022-07-30T04:20:43;96734.22;;;15.91;86.02
14689;BME280;7432;48.728;9.154;2022-07-30T04:23:11;96742.00;;;15.91;86.44
14689;BME280;7432;48.728;9.154;2022-07-30T04:25:39;96745.19;;;15.93;86.45
14689;BME280;7432;48.728;9.154;2022-07-30T04:28:09;96737.63;;;15.92;86.74
14689;BME280;7432;48.728;9.154;2022-07-30T04:30:39;96747.44;;;15.96;86.99
14689;BME280;7432;48.728;9.154;2022-07-30T04:33:06;96752.25;;;15.99;86.51
14689;BME280;7432;48.728;9.154;2022-07-30T04:35:34;96754.84;;;15.99;86.52
14689;BME280;7432;48.728;9.154;2022-07-30T04:38:00;96754.91;;;16.06;86.49
14689;BME280;7432;48.728;9.154;2022-07-30T04:40:28;96755.97;;;16.12;86.71
14689;BME280;7432;48.728;9.154;2022-07-30T04:42:55;96760.38;;;16.18;86.63
14689;BME280;7432;48.728;9.154;2022-07-30T04:45:22;96765.03;;;16.22;86.34
14689;BME280;7432;48.728;9.154;2022-07-30T04:47:50;96773.44;;;16.24;86.55
14689;BME280;7432;48.728;9.154;2022-07-30T04:50:20;96771.31;;;16.34;85.91
14689;BME280;7432;48.728;9.154;2022-07-30T04:52:49;96772.34;;;16.40;86.08
14689;BME280;7432;48.728;9.154;2022-07-30T04:55:17;96775.38;;;16.43;85.94
14689;BME280;7432;48.728;9.154;2022-07-30T04:57:47;96773.78;;;16.42;86.39
14689;BME280;7432;48.728;9.154;2022-07-30T05:00:15;96768.63;;;16.49;86.34
14689;BME280;7432;48.728;9.154;2022-07-30T05:02:42;96772.72;;;16.58;85.89
14689;BME280;7432;48.728;9.154;2022-07-30T05:05:12;96773.56;;;16.65;85.51
14689;BME280;7432;48.728;9.154;2022-07-30T05:07:40;96773.22;;;16.75;85.13
14689;BME280;7432;48.728;9.154;2022-07-30T05:10:09;96783.28;;;16.84;84.69
14689;BME280;7432;48.728;9.154;2022-07-30T05:12:36;96777.31;;;16.90;84.03
14689;BME280;7432;48.728;9.154;2022-07-30T05:15:04;96774.56;;;16.98;84.31
14689;BME280;7432;48.728;9.154;2022-07-30T05:17:30;96782.19;;;17.06;84.00
14689;BME280;7432;48.728;9.154;2022-07-30T05:19:57;96780.84;;;17.17;83.95
14689;BME280;7432;48.728;9.154;2022-07-30T05:22:25;96774.28;;;17.28;83.15
14689;BME280;7432;48.728;9.154;2022-07-30T05:24:54;96778.53;;;17.42;82.40
14689;BME280;7432;48.728;9.154;2022-07-30T05:27:20;96787.44;;;17.54;81.76
14689;BME280;7432;48.728;9.154;2022-07-30T05:29:47;96781.03;;;17.63;81.02
14689;BME280;7432;48.728;9.154;2022-07-30T05:32:13;96784.47;;;17.76;80.50
14689;BME280;7432;48.728;9.154;2022-07-30T05:34:39;96795.09;;;17.88;79.75
14689;BME280;7432;48.728;9.154;2022-07-30T05:37:06;96783.72;;;18.02;79.10
14689;BME280;7432;48.728;9.154;2022-07-30T05:39:34;96797.75;;;18.21;78.89
14689;BME280;7432;48.728;9.154;2022-07-30T05:42:00;96798.34;;;18.36;77.90
14689;BME280;7432;48.728;9.154;2022-07-30T05:44:27;96797.78;;;18.60;76.23
14689;BME280;7432;48.728;9.154;2022-07-30T05:46:53;96800.34;;;18.80;75.11
14689;BME280;7432;48.728;9.154;2022-07-30T05:49:20;96791.47;;;19.01;74.68
14689;BME280;7432;48.728;9.154;2022-07-30T05:51:46;96796.41;;;19.22;74.21
14689;BME280;7432;48.728;9.154;2022-07-30T05:54:13;96793.94;;;19.46;72.60
14689;BME280;7432;48.728;9.154;2022-07-30T05:56:40;96792.81;;;19.67;71.73
14689;BME280;7432;48.728;9.154;2022-07-30T05:59:07;96798.00;;;19.80;71.45
14689;BME280;7432;48.728;9.154;2022-07-30T06:01:33;96804.84;;;20.06;70.19
14689;BME280;7432;48.728;9.154;2022-07-30T06:04:00;96806.38;;;20.27;69.61
14689;BME280;7432;48.728;9.154;2022-07-30T06:06:26;96813.59;;;20.49;69.12
14689;BME280;7432;48.728;9.154;2022-07-30T06:08:53;96808.22;;;20.69;68.38
14689;BME280;7432;48.728;9.154;2022-07-30T06:11:19;96813.09;;;21.08;63.78
14689;BME280;7432;48.728;9.154;2022-07-30T06:13:47;96820.59;;;22.30;60.30
14689;BME280;7432;48.728;9.154;2022-07-30T06:16:13;96821.25;;;24.22;56.03
14689;BME280;7432;48.728;9.154;2022-07-30T06:18:40;96829.28;;;25.80;50.45
14689;BME280;7432;48.728;9.154;2022-07-30T06:21:06;96828.88;;;27.72;45.29
14689;BME280;7432;48.728;9.154;2022-07-30T06:23:33;96838.06;;;29.76;41.19
14689;BME280;7432;48.728;9.154;2022-07-30T06:25:59;96840.06;;;31.11;38.72
14689;BME280;7432;48.728;9.154;2022-07-30T06:28:25;96844.31;;;32.58;36.72
14689;BME280;7432;48.728;9.154;2022-07-30T06:30:53;96849.56;;;33.68;34.29
14689;BME280;7432;48.728;9.154;2022-07-30T06:33:20;96841.84;;;35.05;32.31
14689;BME280;7432;48.728;9.154;2022-07-30T06:35:46;96853.56;;;36.05;30.47
14689;BME280;7432;48.728;9.154;2022-07-30T06:38:13;96851.84;;;36.52;29.50
14689;BME280;7432;48.728;9.154;2022-07-30T06:40:39;96855.38;;;37.16;28.56
14689;BME280;7432;48.728;9.154;2022-07-30T06:43:05;96845.97;;;37.30;28.03
14689;BME280;7432;48.728;9.154;2022-07-30T06:45:32;96855.72;;;37.52;27.55
14689;BME280;7432;48.728;9.154;2022-07-30T06:48:00;96851.75;;;37.12;28.13
14689;BME280;7432;48.728;9.154;2022-07-30T06:50:26;96854.00;;;37.01;27.44
14689;BME280;7432;48.728;9.154;2022-07-30T06:52:54;96861.31;;;36.15;28.45
14689;BME280;7432;48.728;9.154;2022-07-30T06:55:20;96863.06;;;36.28;29.13
14689;BME280;7432;48.728;9.154;2022-07-30T06:57:47;96856.09;;;36.10;29.07
14689;BME280;7432;48.728;9.154;2022-07-30T07:00:14;96859.03;;;37.03;28.05
14689;BME280;7432;48.728;9.154;2022-07-30T07:02:40;96867.72;;;38.13;27.49
14689;BME280;7432;48.728;9.154;2022-07-30T07:05:09;96863.06;;;38.96;25.83
14689;BME280;7432;48.728;9.154;2022-07-30T07:07:36;96873.38;;;39.39;25.69
14689;BME280;7432;48.728;9.154;2022-07-30T07:10:03;96862.63;;;39.63;25.43
14689;BME280;7432;48.728;9.154;2022-07-30T07:12:29;96872.94;;;40.50;25.11
14689;BME280;7432;48.728;9.154;2022-07-30T07:14:56;96870.84;;;40.71;24.86
14689;BME280;7432;48.728;9.154;2022-07-30T07:17:22;96877.72;;;41.12;23.72
14689;BME280;7432;48.728;9.154;2022-07-30T07:19:49;96869.81;;;41.34;23.33
14689;BME280;7432;48.728;9.154;2022-07-30T07:22:16;96874.50;;;40.51;23.97
14689;BME280;7432;48.728;9.154;2022-07-30T07:24:43;96863.81;;;40.54;23.77
14689;BME280;7432;48.728;9.154;2022-07-30T07:27:09;96862.81;;;40.47;23.60
14689;BME280;7432;48.728;9.154;2022-07-30T07:29:36;96873.81;;;41.09;23.08
14689;BME280;7432;48.728;9.154;2022-07-30T07:32:02;96867.81;;;41.47;23.05
14689;BME280;7432;48.728;9.154;2022-07-30T07:34:29;96869.28;;;41.60;22.43
14689;BME280;7432;48.728;9.154;2022-07-30T07:36:55;96872.66;;;41.10;22.85
14689;BME280;7432;48.728;9.154;2022-07-30T07:39:23;96867.00;;;41.31;22.32
14689;BME280;7432;48.728;9.154;2022-07-30T07:41:49;96869.63;;;41.74;22.38
14689;BME280;7432;48.728;9.154;2022-07-30T07:44:16;96870.34;;;42.06;21.71
14689;BME280;7432;48.728;9.154;2022-07-30T07:46:42;96884.13;;;42.71;21.74
14689;BME280;7432;48.728;9.154;2022-07-30T07:49:09;96881.34;;;43.32;21.56
14689;BME280;7432;48.728;9.154;2022-07-30T07:51:35;96886.97;;;43.20;20.63
14689;BME280;7432;48.728;9.154;2022-07-30T07:54:02;96874.81;;;43.82;20.14
14689;BME280;7432;48.728;9.154;2022-07-30T07:56:30;96872.25;;;42.40;20.45
14689;BME280;7432;48.728;9.154;2022-07-30T07:58:56;96877.03;;;42.66;19.95
14689;BME280;7432;48.728;9.154;2022-07-30T08:01:23;96860.91;;;41.50;21.08
14689;BME280;7432;48.728;9.154;2022-07-30T08:03:49;96880.34;;;43.17;20.03
14689;BME280;7432;48.728;9.154;2022-07-30T08:06:16;96872.16;;;44.11;19.34
14689;BME280;7432;48.728;9.154;2022-07-30T08:08:42;96877.72;;;44.52;19.36
14689;BME280;7432;48.728;9.154;2022-07-30T08:11:09;96873.88;;;43.48;19.52
14689;BME280;7432;48.728;9.154;2022-07-30T08:13:36;96877.28;;;40.14;21.97
14689;BME280;7432;48.728;9.154;2022-07-30T08:16:04;96875.44;;;40.70;20.88
14689;BME280;7432;48.728;9.154;2022-07-30T08:18:32;96881.78;;;40.62;21.69
14689;BME280;7432;48.728;9.154;2022-07-30T08:20:58;96874.25;;;41.74;20.76
14689;BME280;7432;48.728;9.154;2022-07-30T08:23:25;96883.84;;;42.57;20.34
14689;BME280;7432;48.728;9.154;2022-07-30T08:25:51;96879.91;;;42.54;20.41
14689;BME280;7432;48.728;9.154;2022-07-30T08:28:18;96873.19;;;41.78;20.90
14689;BME280;7432;48.728;9.154;2022-07-30T08:30:45;96874.06;;;41.82;20.66
14689;BME280;7432;48.728;9.154;2022-07-30T08:33:14;96877.31;;;42.42;20.29
14689;BME280;7432;48.728;9.154;2022-07-30T08:35:40;96878.78;;;42.20;20.57
14689;BME280;7432;48.728;9.154;2022-07-30T08:38:07;96877.81;;;41.62;20.82
14689;BME280;7432;48.728;9.154;2022-07-30T08:40:34;96868.97;;;40.47;21.12
14689;BME280;7432;48.728;9.154;2022-07-30T08:43:02;96873.19;;;40.72;21.25
14689;BME280;7432;48.728;9.154;2022-07-30T08:45:30;96872.69;;;41.73;20.91
14689;BME280;7432;48.728;9.154;2022-07-30T08:47:59;96872.97;;;42.03;20.55
14689;BME280;7432;48.728;9.154;2022-07-30T08:50:26;96882.31;;;42.97;20.13
14689;BME280;7432;48.728;9.154;2022-07-30T08:52:53;96878.53;;;41.28;20.76
14689;BME280;7432;48.728;9.154;2022-07-30T08:55:20;96881.53;;;40.95;21.64
14689;BME280;7432;48.728;9.154;2022-07-30T08:57:47;96869.75;;;40.60;21.53
14689;BME280;7432;48.728;9.154;2022-07-30T09:00:14;96870.56;;;39.48;21.86
14689;BME280;7432;48.728;9.154;2022-07-30T09:02:42;96864.88;;;38.10;23.40
14689;BME280;7432;48.728;9.154;2022-07-30T09:05:10;96871.34;;;35.92;24.97
14689;BME280;7432;48.728;9.154;2022-07-30T09:07:38;96863.28;;;35.05;27.34
14689;BME280;7432;48.728;9.154;2022-07-30T09:10:06;96866.84;;;33.84;28.03
14689;BME280;7432;48.728;9.154;2022-07-30T09:12:35;96858.84;;;32.84;29.84
14689;BME280;7432;48.728;9.154;2022-07-30T09:15:08;96853.31;;;35.28;28.43
14689;BME280;7432;48.728;9.154;2022-07-30T09:17:52;96875.53;;;38.68;23.95
14689;BME280;7432;48.728;9.154;2022-07-30T09:20:22;96876.41;;;38.39;23.38
14689;BME280;7432;48.728;9.154;2022-07-30T09:22:51;96866.06;;;36.69;24.04
14689;BME280;7432;48.728;9.154;2022-07-30T09:25:34;96876.88;;;37.62;24.18
14689;BME280;7432;48.728;9.154;2022-07-30T09:28:02;96870.59;;;38.70;22.68
14689;BME280;7432;48.728;9.154;2022-07-30T09:30:42;96873.38;;;39.51;21.97
14689;BME280;7432;48.728;9.154;2022-07-30T09:33:09;96870.78;;;40.15;20.67
14689;BME280;7432;48.728;9.154;2022-07-30T09:35:38;96872.31;;;41.12;21.70
14689;BME280;7432;48.728;9.154;2022-07-30T09:38:06;96881.03;;;41.68;20.44
14689;BME280;7432;48.728;9.154;2022-07-30T09:40:33;96862.94;;;39.74;21.93
14689;BME280;7432;48.728;9.154;2022-07-30T09:43:04;96861.59;;;37.08;23.93
14689;BME280;7432;48.728;9.154;2022-07-30T09:45:31;96864.56;;;35.38;25.30
14689;BME280;7432;48.728;9.154;2022-07-30T09:47:58;96847.78;;;35.24;26.26
14689;BME280;7432;48.728;9.154;2022-07-30T09:50:25;96856.66;;;35.81;26.20
14689;BME280;7432;48.728;9.154;2022-07-30T09:52:54;96854.16;;;36.88;24.36
14689;BME280;7432;48.728;9.154;2022-07-30T09:55:29;96865.63;;;39.74;22.82
14689;BME280;7432;48.728;9.154;2022-07-30T09:57:58;96867.13;;;40.63;20.91
14689;BME280;7432;48.728;9.154;2022-07-30T10:00:26;96866.22;;;41.30;20.68
14689;BME280;7432;48.728;9.154;2022-07-30T10:02:53;96878.84;;;42.59;19.29
14689;BME280;7432;48.728;9.154;2022-07-30T10:05:20;96867.97;;;43.91;18.57
14689;BME280;7432;48.728;9.154;2022-07-30T10:07:49;96870.25;;;43.89;18.66
14689;BME280;7432;48.728;9.154;2022-07-30T10:10:19;96869.94;;;43.68;18.11
14689;BME280;7432;48.728;9.154;2022-07-30T10:12:47;96862.88;;;41.84;19.49
14689;BME280;7432;48.728;9.154;2022-07-30T10:15:17;96855.69;;;40.14;21.14
14689;BME280;7432;48.728;9.154;2022-07-30T10:17:46;96854.16;;;39.53;22.54
14689;BME280;7432;48.728;9.154;2022-07-30T10:20:13;96852.44;;;37.76;23.30
14689;BME280;7432;48.728;9.154;2022-07-30T10:22:40;96852.91;;;35.43;24.91
14689;BME280;7432;48.728;9.154;2022-07-30T10:25:08;96852.03;;;34.28;27.31
14689;BME280;7432;48.728;9.154;2022-07-30T10:27:37;96849.13;;;33.20;28.57
14689;BME280;7432;48.728;9.154;2022-07-30T10:30:04;96841.47;;;32.49;28.19
14689;BME280;7432;48.728;9.154;2022-07-30T10:32:31;96832.97;;;34.96;26.01
14689;BME280;7432;48.728;9.154;2022-07-30T10:34:58;96836.81;;;36.76;24.07
14689;BME280;7432;48.728;9.154;2022-07-30T10:37:26;96840.22;;;37.03;24.86
14689;BME280;7432;48.728;9.154;2022-07-30T10:39:56;96841.03;;;37.50;24.03
14689;BME280;7432;48.728;9.154;2022-07-30T10:42:41;96849.97;;;38.12;22.46
14689;BME280;7432;48.728;9.154;2022-07-30T10:45:16;96837.31;;;39.80;21.95
14689;BME280;7432;48.728;9.154;2022-07-30T10:47:43;96840.34;;;40.86;21.18
14689;BME280;7432;48.728;9.154;2022-07-30T10:50:12;96836.50;;;41.81;19.73
14689;BME280;7432;48.728;9.154;2022-07-30T10:52:46;96839.09;;;41.43;20.46
14689;BME280;7432;48.728;9.154;2022-07-30T10:55:16;96834.91;;;40.03;20.98
14689;BME280;7432;48.728;9.154;2022-07-30T10:57:58;96833.03;;;39.31;21.55
14689;BME280;7432;48.728;9.154;2022-07-30T11:00:25;96826.94;;;39.09;22.72
14689;BME280;7432;48.728;9.154;2022-07-30T11:03:12;96836.63;;;38.78;23.02
14689;BME280;7432;48.728;9.154;2022-07-30T11:05:39;96828.16;;;39.97;21.92
14689;BME280;7432;48.728;9.154;2022-07-30T11:08:35;96834.81;;;40.95;20.57
14689;BME280;7432;48.728;9.154;2022-07-30T11:11:03;96837.63;;;40.86;19.93
14689;BME280;7432;48.728;9.154;2022-07-30T11:13:50;96838.59;;;38.69;22.03
14689;BME280;7432;48.728;9.154;2022-07-30T11:16:18;96838.13;;;38.67;22.04
14689;BME280;7432;48.728;9.154;2022-07-30T11:19:06;96827.03;;;38.68;22.75
14689;BME280;7432;48.728;9.154;2022-07-30T11:21:34;96824.47;;;36.75;24.23
14689;BME280;7432;48.728;9.154;2022-07-30T11:24:01;96818.03;;;35.34;24.81
14689;BME280;7432;48.728;9.154;2022-07-30T11:26:49;96817.25;;;34.50;25.97
14689;BME280;7432;48.728;9.154;2022-07-30T11:29:34;96810.53;;;33.40;26.46
14689;BME280;7432;48.728;9.154;2022-07-30T11:32:23;96811.47;;;32.76;27.78
14689;BME280;7432;48.728;9.154;2022-07-30T11:34:50;96817.72;;;32.99;27.70
14689;BME280;7432;48.728;9.154;2022-07-30T11:37:16;96802.38;;;32.91;27.37
14689;BME280;7432;48.728;9.154;2022-07-30T11:40:05;96812.09;;;31.80;28.18
14689;BME280;7432;48.728;9.154;2022-07-30T11:42:34;96798.66;;;32.08;27.92
14689;BME280;7432;48.728;9.154;2022-07-30T11:45:24;96815.44;;;34.01;26.73
14689;BME280;7432;48.728;9.154;2022-07-30T11:47:58;96814.50;;;35.64;25.08
14689;BME280;7432;48.728;9.154;2022-07-30T11:50:27;96805.72;;;35.33;25.05
14689;BME280;7432;48.728;9.154;2022-07-30T11:52:56;96807.00;;;36.52;23.00
14689;BME280;7432;48.728;9.154;2022-07-30T11:55:24;96804.88;;;36.83;22.94
14689;BME280;7432;48.728;9.154;2022-07-30T11:57:51;96799.31;;;36.97;23.77
14689;BME280;7432;48.728;9.154;2022-07-30T12:00:18;96805.06;;;36.01;23.96
14689;BME280;7432;48.728;9.154;2022-07-30T12:02:46;96808.69;;;34.92;25.42
14689;BME280;7432;48.728;9.154;2022-07-30T12:05:14;96793.44;;;33.27;26.68
14689;BME280;7432;48.728;9.154;2022-07-30T12:07:41;96789.63;;;32.88;27.20
14689;BME280;7432;48.728;9.154;2022-07-30T12:10:11;96796.84;;;33.01;26.69
14689;BME280;7432;48.728;9.154;2022-07-30T12:12:38;96793.47;;;32.17;28.02
14689;BME280;7432;48.728;9.154;2022-07-30T12:15:05;96790.19;;;31.40;29.86
14689;BME280;7432;48.728;9.154;2022-07-30T12:17:40;96786.53;;;31.13;28.98
14689;BME280;7432;48.728;9.154;2022-07-30T12:20:15;96780.00;;;30.71;30.57
14689;BME280;7432;48.728;9.154;2022-07-30T12:22:42;96783.38;;;30.53;29.93
14689;BME280;7432;48.728;9.154;2022-07-30T12:25:09;96775.53;;;30.67;30.00
14689;BME280;7432;48.728;9.154;2022-07-30T12:27:36;96780.81;;;31.00;29.51
14689;BME280;7432;48.728;9.154;2022-07-30T12:30:04;96784.66;;;31.13;29.55
14689;BME280;7432;48.728;9.154;2022-07-30T12:32:32;96771.34;;;31.13;30.42
14689;BME280;7432;48.728;9.154;2022-07-30T12:34:58;96775.28;;;30.68;30.95
14689;BME280;7432;48.728;9.154;2022-07-30T12:37:26;96772.09;;;30.37;31.25
14689;BME280;7432;48.728;9.154;2022-07-30T12:40:04;96773.16;;;30.36;31.45
14689;BME280;7432;48.728;9.154;2022-07-30T12:42:31;96774.97;;;30.36;32.09
14689;BME280;7432;48.728;9.154;2022-07-30T12:44:58;96770.25;;;30.38;31.83
14689;BME280;7432;48.728;9.154;2022-07-30T12:47:26;96771.00;;;30.38;31.33
14689;BME280;7432;48.728;9.154;2022-07-30T12:49:55;96774.75;;;30.66;31.37
14689;BME280;7432;48.728;9.154;2022-07-30T12:52:26;96763.16;;;30.57;29.57
14689;BME280;7432;48.728;9.154;2022-07-30T12:55:02;96768.59;;;30.42;30.30
14689;BME280;7432;48.728;9.154;2022-07-30T12:57:56;96768.09;;;30.35;29.98
14689;BME280;7432;48.728;9.154;2022-07-30T13:00:25;96756.00;;;30.19;30.95
14689;BME280;7432;48.728;9.154;2022-07-30T13:02:53;96749.59;;;30.20;30.93
14689;BME280;7432;48.728;9.154;2022-07-30T13:05:41;96749.81;;;29.94;31.13
14689;BME280;7432;48.728;9.154;2022-07-30T13:08:09;96752.63;;;29.59;32.33
14689;BME280;7432;48.728;9.154;2022-07-30T13:10:35;96754.81;;;29.52;33.02
14689;BME280;7432;48.728;9.154;2022-07-30T13:13:02;96741.06;;;29.45;31.40
14689;BME280;7432;48.728;9.154;2022-07-30T13:15:28;96744.03;;;29.33;32.83
14689;BME280;7432;48.728;9.154;2022-07-30T13:17:55;96732.38;;;29.24;32.40